Station: Gatton  

  Atmospheric Gas Attenuation - ITU Rec 676-11   ----------------- dB/100km -----------------
Date Time Temp RH % AH g/m3 Dew Point Wind Direction Speed kph Gust kph Barometer mB Rainfall Since 9am 24GHz 47GHz 76GHz 122GHz 134GHz 241GHz
08/05 12:30 21 25 4.58 0.2 19 28 1013.1 0 10.8 18.4 22.8 59.2 45.1 152.2
08/05 12:20 20.8 23 4.16 -1.1 20 24 1013.1 0 10.0 17.9 21.6 55.9 40.9 137.4
08/05 12:10 20.3 24 4.22 -0.9 15 19 1013.1 0 10.1 18.1 21.9 56.7 41.8 140.4
08/05 12:00 19.7 24 4.08 -1.4 17 28 1013.1 0 9.8 18.0 21.6 56.0 40.6 136.3
08/05 11:50 19.5 24 4.03 -1.6 17 19 1013.1 0 9.7 18.0 21.5 55.7 40.2 134.9
08/05 11:40 19.4 26 4.34 -0.6 20 24 1013.1 0 10.4 18.4 22.5 58.3 43.4 146.3
08/05 11:30 19.1 24 3.93 -1.9 20 26 1013.1 0 9.5 17.9 21.3 55.1 39.4 131.9
08/05 11:20 19 26 4.24 -1 19 22 1013.1 0 10.2 18.4 22.3 57.8 42.6 143.3
08/05 11:10 18.9 26 4.21 -1 15 19 1013.1 0 10.1 18.3 22.2 57.6 42.4 142.4
08/05 11:00 18.5 27 4.27 -0.8 17 24 1013.1 0 10.3 18.5 22.5 58.4 43.2 145.3
08/05 10:50 18 28 4.3 -0.8 19 20 1013.1 0 10.3 18.6 22.8 59.0 43.8 147.2
08/05 10:40 17.5 27 4.03 -1.7 20 22 1013.1 0 9.8 18.4 22.0 57.0 41.2 138.1
08/05 10:30 17.4 28 4.15 -1.3 20 28 1013.1 0 10.0 18.6 22.5 58.1 42.5 142.7
08/05 10:20 17.1 28 4.08 -1.6 20 24 1013.1 0 9.9 18.5 22.3 57.7 41.9 140.6
08/05 10:10 16.9 29 4.17 -1.3 20 24 1013.1 0 10.1 18.7 22.7 58.6 43.0 144.3
08/05 10:00 16.5 30 4.21 -1.1 17 28 1013.1 0 10.2 18.8 22.9 59.3 43.6 146.5
08/05 09:50 16.3 31 4.3 -0.9 19 22 1013.1 0 10.4 19.0 23.2 60.2 44.7 150.3
08/05 09:40 15.8 29 3.9 -2.2 20 22 1013.1 0 9.6 18.5 22.1 57.1 40.7 136.0
08/05 09:30 15.4 31 4.07 -1.6 20 28 1013.1 0 9.9 18.8 22.7 58.8 42.7 143.1
08/05 09:20 14.8 35 4.43 -0.5 20 24 1013.1 0 10.7 19.4 24.1 62.5 46.9 158.1
08/05 09:10 14.4 36 4.45 -0.5 20 26 1013.1 0 10.8 19.6 24.3 63.0 47.4 159.6
08/05 09:00 13.9 37 4.44 -0.5 22 28 1013.1 0 10.8 19.6 24.4 63.2 47.6 160.2
08/05 08:50 13.5 36 4.21 -1.3 22 28 1013.1 0 10.3 19.4 23.7 61.5 45.2 151.9
08/05 08:40 13.3 37 4.27 -1.1 17 19 1013.1 0 10.4 19.5 24.0 62.2 46.0 154.7
08/05 08:30 12.7 37 4.12 -1.6 20 30 1013.1 0 10.1 19.5 23.7 61.3 44.7 149.9
08/05 08:20 12.4 38 4.15 -1.5 17 20 1013.1 0 10.2 19.6 23.8 61.8 45.2 151.6
08/05 08:10 12 42 4.48 -0.5 19 24 1013.1 0 10.9 20.1 25.1 65.1 49.2 165.6
08/05 08:00 11.3 42 4.28 -1.1 20 28 1013.1 0 10.5 20.0 24.6 63.8 47.3 158.9
08/05 07:50 11 43 4.3 -1.1 20 26 1013.1 0 10.5 20.1 24.8 64.2 47.7 160.3
08/05 07:40 10.7 44 4.32 -1.1 20 26 1013.1 0 10.6 20.2 24.9 64.7 48.1 161.7
08/05 07:30 10.2 46 4.38 -0.9 19 28 1013.1 0 10.7 20.4 25.3 65.6 49.1 165.1
08/05 07:20 9.8 47 4.36 -1 20 26 1013.1 0 10.7 20.4 25.3 65.8 49.1 165.1
08/05 07:10 9.4 49 4.43 -0.8 20 24 1013.1 0 10.9 20.6 25.7 66.8 50.2 168.8
08/05 07:00 9.1 49 4.35 -1 17 24 1013.1 0 10.7 20.6 25.5 66.2 49.4 166.1
08/05 06:50 8.6 51 4.38 -1 17 20 1013.1 0 10.8 20.7 25.8 66.9 50.1 168.4
08/05 06:40 8.4 51 4.33 -1.2 17 20 1013.1 0 10.7 20.7 25.7 66.6 49.6 166.7
08/05 06:30 7.8 54 4.41 -0.9 17 20 1013.1 0 10.9 20.9 26.1 67.9 51.0 171.4
08/05 06:20 7.9 53 4.36 -1.1 13 17 1013.1 0 10.8 20.8 25.9 67.3 50.3 169.0
08/05 06:10 8 53 4.38 -1 13 15 1013.1 0 10.8 20.9 26.0 67.4 50.5 169.7
08/05 06:00 8.1 51 4.25 -1.4 17 22 1013.1 0 10.5 20.6 25.5 66.1 48.9 164.0
08/05 05:50 8.6 50 4.3 -1.3 17 24 1013.1 0 10.6 20.6 25.5 66.2 49.2 165.1
08/05 05:40 8.4 51 4.33 -1.2 13 15 1013.1 0 10.7 20.7 25.7 66.6 49.6 166.7
08/05 05:30 8.8 50 4.35 -1 15 22 1013.1 0 10.7 20.6 25.6 66.5 49.6 166.7
08/05 05:20 9 49 4.32 -1.2 15 17 1013.1 0 10.6 20.5 25.4 66.0 49.1 165.1
08/05 05:10 9.2 48 4.29 -1.3 13 19 1013.1 0 10.6 20.5 25.3 65.6 48.7 163.4
08/05 05:00 9.5 46 4.19 -1.5 22 30 1013.1 0 10.4 20.2 24.8 64.4 47.3 158.7
08/05 04:50 9.5 47 4.28 -1.3 22 28 1013.1 0 10.5 20.4 25.1 65.2 48.4 162.4
08/05 04:40 9.7 46 4.24 -1.4 20 22 1013.1 0 10.5 20.3 24.9 64.7 47.8 160.4
08/05 04:30 9.7 47 4.33 -1.1 22 32 1013.1 0 10.6 20.4 25.3 65.6 48.8 164.1
08/05 04:20 9.8 47 4.36 -1 20 26 1013.1 0 10.7 20.4 25.3 65.8 49.1 165.1
08/05 04:10 10 47 4.42 -0.8 19 22 1013.1 0 10.8 20.5 25.5 66.2 49.7 167.2
08/05 04:00 10 47 4.42 -0.8 24 32 1013.1 0 10.8 20.5 25.5 66.2 49.7 167.2
08/05 03:50 10.2 46 4.38 -0.9 20 28 1013.1 0 10.7 20.4 25.3 65.6 49.1 165.1
08/05 03:40 10.3 47 4.5 -0.5 22 28 1013.1 0 11.0 20.5 25.7 66.7 50.5 169.9
08/05 03:30 10.4 47 4.53 -0.4 19 28 1013.1 0 11.1 20.5 25.8 66.9 50.8 170.9
08/05 03:20 10.5 47 4.56 -0.4 20 24 1013.1 0 11.1 20.6 25.8 67.1 51.0 171.9
08/05 03:10 10.8 46 4.55 -0.4 19 24 1013.1 0 11.1 20.5 25.7 66.7 50.7 170.9
08/05 03:00 11.1 45 4.53 -0.4 22 30 1013.1 0 11.0 20.4 25.5 66.3 50.3 169.4
08/05 02:50 11.1 46 4.63 -0.1 24 30 1013.1 0 11.2 20.5 25.9 67.3 51.5 173.5
08/05 02:40 11.2 46 4.66 0 20 26 1013.1 0 11.3 20.5 26.0 67.5 51.8 174.6
08/05 02:30 11.3 47 4.79 0.4 20 30 1013.1 0 11.6 20.7 26.4 68.6 53.2 179.7
08/05 02:20 11.7 46 4.81 0.4 26 30 1013.1 0 11.6 20.6 26.3 68.4 53.2 179.6
08/05 02:10 11.8 48 5.05 1.1 28 32 1013.1 0 12.1 21.0 27.2 70.6 55.9 189.3
08/05 02:00 11.6 49 5.09 1.3 22 30 1013.1 0 12.2 21.1 27.4 71.2 56.5 191.4
08/05 01:50 11.9 48 5.08 1.2 22 28 1013.1 0 12.2 21.0 27.2 70.8 56.2 190.3
08/05 01:40 12 49 5.22 1.6 19 20 1013.1 0 12.5 21.2 27.7 72.1 57.8 195.9
08/05 01:30 12.3 48 5.21 1.6 15 22 1013.1 0 12.4 21.1 27.6 71.7 57.5 194.8
08/05 01:20 12.5 47 5.17 1.5 17 19 1013.1 0 12.3 21.0 27.3 71.2 56.9 192.6
08/05 01:10 12.5 48 5.28 1.8 22 26 1013.1 0 12.6 21.1 27.7 72.2 58.1 197.2
08/05 01:00 12.7 48 5.34 2 13 19 1013.1 0 12.7 21.2 27.9 72.6 58.7 199.2
08/05 00:50 12.9 48 5.41 2.1 15 19 1013.1 0 12.8 21.2 28.1 73.1 59.4 201.6
08/05 00:40 13.2 47 5.4 2.1 13 15 1013.1 0 12.8 21.2 27.9 72.7 59.0 200.4
08/05 00:30 13.2 49 5.63 2.7 15 22 1013.1 0 13.3 21.5 28.8 74.9 61.8 210.0
08/05 00:20 13.2 50 5.74 3 17 19 1013.1 0 13.5 21.6 29.1 76.0 63.1 214.6
08/05 00:10 13.4 50 5.81 3.4 17 20 1013.1 0 13.7 21.7 29.3 76.5 63.7 216.9
08/05 00:00 13.8 50 5.96 3.6 13 20 1013.1 0 14.0 21.8 29.7 77.5 65.2 222.1
07/05 23:50 13.9 50 5.99 3.6 9 11 1013.1 0 14.0 21.8 29.8 77.7 65.5 223.1
07/05 23:40 14.1 51 6.19 4.1 15 19 1013.1 0 14.4 22.1 30.4 79.5 67.7 231.0
07/05 23:30 14.9 47 5.99 3.7 22 33 1013.1 0 14.0 21.6 29.4 76.8 64.7 220.4
07/05 23:20 14.9 49 6.24 4.3 22 30 1013.1 0 14.5 22.0 30.3 79.2 67.6 230.8
07/05 23:10 15.1 50 6.45 4.7 28 33 1013.1 0 15.0 22.2 31.0 81.0 70.0 239.0
07/05 23:00 15.2 52 6.75 5.4 20 26 1013.1 0 15.6 22.6 32.1 83.8 73.5 251.3
07/05 22:50 15.3 52 6.79 5.5 19 20 1013.1 0 15.7 22.7 32.2 84.1 73.9 252.7
07/05 22:40 15.6 52 6.92 5.8 28 33 1013.1 0 15.9 22.8 32.5 85.1 75.2 257.3
07/05 22:30 16 52 7.08 6.2 22 37 1013.1 0 16.3 22.9 33.0 86.2 76.7 262.8
07/05 22:20 16.1 50 6.85 5.9 22 24 1013.1 0 15.8 22.6 32.1 83.9 73.8 252.7
07/05 22:10 16.6 50 7.06 6.1 22 28 1013.1 0 16.2 22.8 32.6 85.4 75.9 260.0
07/05 22:00 16.9 49 7.05 6.1 24 37 1013.1 0 16.2 22.7 32.5 85.0 75.5 258.6
07/05 21:50 17.1 48 6.99 6 26 28 1013.1 0 16.0 22.5 32.2 84.2 74.6 255.4
07/05 21:40 17.2 47 6.88 5.8 19 26 1013.1 0 15.8 22.3 31.8 83.0 73.2 250.6
07/05 21:30 17.3 46 6.78 5.6 20 30 1013.1 0 15.6 22.2 31.4 82.0 71.9 246.1
07/05 21:20 17.5 45 6.71 5.4 28 32 1013.1 0 15.4 22.0 31.0 81.1 70.9 242.6
07/05 21:10 17.5 45 6.71 5.4 20 28 1013.1 0 15.4 22.0 31.0 81.1 70.9 242.6
07/05 21:00 17.4 45 6.67 5.4 19 32 1013.1 0 15.3 22.0 30.9 80.8 70.5 241.3
07/05 20:50 17.5 44 6.56 5.1 19 22 1013.1 0 15.1 21.8 30.5 79.7 69.2 236.5
07/05 20:40 17.1 44 6.4 5 13 20 1013.1 0 14.8 21.7 30.1 78.6 67.6 231.1
07/05 20:30 16.7 45 6.39 4.7 9 17 1013.1 0 14.8 21.8 30.2 78.8 67.9 231.8
07/05 20:20 16.7 44 6.25 4.4 9 11 1013.1 0 14.5 21.6 29.7 77.5 66.2 226.1
07/05 20:10 16.8 44 6.29 4.5 9 13 1013.1 0 14.6 21.6 29.8 77.8 66.6 227.5
07/05 20:00 17.4 42 6.22 4.4 13 19 1013.1 0 14.4 21.4 29.4 76.6 65.3 223.0

Last Refresh: 08-May-2026 12:08:29

Bureau of Meteorology